This is the latest recevied weather packets stored in our database for station/object IR4UCA. If no packets are shown the sender has not sent any weather packets the latest 1 day(s).
| Time | Temp. | Humidity | Pressure | Rain* | Wind** | Luminosity | Snow |
|---|---|---|---|---|---|---|---|
| 1778009384 | 18.33° C | 85% | 1011.9 hPa | 0 mm | 0.89 m/s, 0° | - | - |
| 1778008183 | 18.33° C | 84% | 1011.8 hPa | 0 mm | 0 m/s | - | - |
| 1778007584 | 18.33° C | 83% | 1011.7 hPa | 0 mm | 0.89 m/s, 0° | - | - |
| 1778006983 | 18.33° C | 83% | 1011.6 hPa | 0 mm | 1.34 m/s, 0° | - | - |
| 1778006383 | 18.89° C | 83% | 1011.6 hPa | 0 mm | 0.89 m/s, 65° | - | - |
| 1778005785 | 18.89° C | 83% | 1011.5 hPa | 0 mm | 1.34 m/s, 71° | - | - |
| 1778005184 | 18.89° C | 84% | 1011.5 hPa | 0 mm | 1.79 m/s, 0° | - | - |
| 1778004584 | 18.89° C | 83% | 1011.5 hPa | 0 mm | 2.24 m/s, 0° | - | - |
| 1778003984 | 18.89° C | 82% | 1011.5 hPa | 0 mm | 0.89 m/s, 0° | - | - |
| 1778002785 | 19.44° C | 82% | 1011.3 hPa | 0 mm | 0.89 m/s, 345° | - | - |
| 1778002186 | 19.44° C | 82% | 1011.4 hPa | 0 mm | 1.79 m/s, 353° | - | - |
| 1778001584 | 20° C | 81% | 1011.3 hPa | 0 mm | 2.68 m/s, 0° | - | - |
| 1778000385 | 19.44° C | 83% | 1011.4 hPa | 0 mm | 1.79 m/s, 0° | - | - |
| 1777999784 | 19.44° C | 83% | 1011.4 hPa | 0 mm | 1.34 m/s, 4° | - | - |
| 1777999185 | 19.44° C | 83% | 1011.2 hPa | 0 mm | 1.79 m/s, 341° | - | - |
| 1777998584 | 19.44° C | 84% | 1011.3 hPa | 0 mm | 1.79 m/s, 326° | - | - |
| 1777997984 | 19.44° C | 83% | 1011.4 hPa | 0 mm | 4.02 m/s, 0° | - | - |
| 1777997384 | 19.44° C | 83% | 1011.4 hPa | 0 mm | 2.24 m/s, 351° | - | - |
| 1777996785 | 19.44° C | 84% | 1011.5 hPa | 0 mm | 1.79 m/s, 302° | - | - |
| 1777996185 | 19.44° C | 83% | 1011.3 hPa | 0 mm | 4.02 m/s, 0° | - | - |
| 1777995583 | 19.44° C | 83% | 1011.4 hPa | 0 mm | 2.24 m/s, 353° | - | - |
| 1777994984 | 19.44° C | 83% | 1011.4 hPa | 0 mm | 3.13 m/s, 0° | - | - |
| 1777993785 | 19.44° C | 83% | 1011.4 hPa | 0 mm | 1.79 m/s, 0° | - | - |
| 1777993184 | 19.44° C | 82% | 1011.5 hPa | 0 mm | 2.24 m/s, 351° | - | - |
| 1777992585 | 20° C | 82% | 1011.4 hPa | 0 mm | 2.24 m/s, 0° | - | - |
* Rain latest hour (hover to see other rain measurements)
** Current wind speed in m/s (hover to see current wind gust speed)